sensor_id;sensor_type;location;lat;lon;timestamp;P1;durP1;ratioP1;P2;durP2;ratioP2
25123;SDS011;13104;51.030;4.686;2023-08-01T00:00:04;6.57;;;2.30;;
25123;SDS011;13104;51.030;4.686;2023-08-01T00:02:32;3.58;;;1.60;;
25123;SDS011;13104;51.030;4.686;2023-08-01T00:04:58;7.28;;;2.42;;
25123;SDS011;13104;51.030;4.686;2023-08-01T00:07:26;4.95;;;2.10;;
25123;SDS011;13104;51.030;4.686;2023-08-01T00:09:52;7.85;;;2.42;;
25123;SDS011;13104;51.030;4.686;2023-08-01T00:12:18;9.27;;;2.83;;
25123;SDS011;13104;51.030;4.686;2023-08-01T00:14:44;7.53;;;2.42;;
25123;SDS011;13104;51.030;4.686;2023-08-01T00:17:10;5.40;;;2.55;;
25123;SDS011;13104;51.030;4.686;2023-08-01T00:19:36;7.40;;;2.40;;
25123;SDS011;13104;51.030;4.686;2023-08-01T00:22:03;8.90;;;2.95;;
25123;SDS011;13104;51.030;4.686;2023-08-01T00:24:29;8.30;;;2.38;;
25123;SDS011;13104;51.030;4.686;2023-08-01T00:26:55;5.95;;;2.35;;
25123;SDS011;13104;51.030;4.686;2023-08-01T00:29:21;5.97;;;2.50;;
25123;SDS011;13104;51.030;4.686;2023-08-01T00:31:47;7.68;;;2.80;;
25123;SDS011;13104;51.030;4.686;2023-08-01T00:34:13;5.75;;;2.63;;
25123;SDS011;13104;51.030;4.686;2023-08-01T00:36:39;9.80;;;2.92;;
25123;SDS011;13104;51.030;4.686;2023-08-01T00:39:05;6.70;;;2.80;;
25123;SDS011;13104;51.030;4.686;2023-08-01T00:41:31;4.75;;;3.00;;
25123;SDS011;13104;51.030;4.686;2023-08-01T00:43:58;10.05;;;3.35;;
25123;SDS011;13104;51.030;4.686;2023-08-01T00:46:24;5.93;;;3.35;;
25123;SDS011;13104;51.030;4.686;2023-08-01T00:48:50;6.97;;;3.33;;
25123;SDS011;13104;51.030;4.686;2023-08-01T00:51:16;9.07;;;4.15;;
25123;SDS011;13104;51.030;4.686;2023-08-01T00:53:43;13.00;;;4.55;;
25123;SDS011;13104;51.030;4.686;2023-08-01T00:56:11;7.88;;;4.00;;
25123;SDS011;13104;51.030;4.686;2023-08-01T00:58:38;11.55;;;4.65;;
25123;SDS011;13104;51.030;4.686;2023-08-01T01:01:04;7.95;;;4.22;;
25123;SDS011;13104;51.030;4.686;2023-08-01T01:03:30;12.90;;;4.88;;
25123;SDS011;13104;51.030;4.686;2023-08-01T01:06:45;8.98;;;4.40;;
25123;SDS011;13104;51.030;4.686;2023-08-01T01:08:43;7.47;;;4.55;;
25123;SDS011;13104;51.030;4.686;2023-08-01T01:11:10;8.73;;;4.70;;
25123;SDS011;13104;51.030;4.686;2023-08-01T01:13:36;9.82;;;5.20;;
25123;SDS011;13104;51.030;4.686;2023-08-01T01:16:02;15.65;;;5.63;;
25123;SDS011;13104;51.030;4.686;2023-08-01T01:18:29;10.73;;;5.65;;
25123;SDS011;13104;51.030;4.686;2023-08-01T01:20:55;12.32;;;5.57;;
25123;SDS011;13104;51.030;4.686;2023-08-01T01:23:21;12.10;;;5.88;;
25123;SDS011;13104;51.030;4.686;2023-08-01T01:25:47;13.90;;;6.13;;
25123;SDS011;13104;51.030;4.686;2023-08-01T01:28:14;12.27;;;6.10;;
25123;SDS011;13104;51.030;4.686;2023-08-01T01:30:42;14.57;;;6.10;;
25123;SDS011;13104;51.030;4.686;2023-08-01T01:33:08;13.95;;;5.80;;
25123;SDS011;13104;51.030;4.686;2023-08-01T01:35:35;10.85;;;6.18;;
25123;SDS011;13104;51.030;4.686;2023-08-01T01:38:02;13.85;;;6.47;;
25123;SDS011;13104;51.030;4.686;2023-08-01T01:40:31;12.55;;;5.68;;
25123;SDS011;13104;51.030;4.686;2023-08-01T01:42:57;11.40;;;6.32;;
25123;SDS011;13104;51.030;4.686;2023-08-01T01:45:23;12.05;;;6.30;;
25123;SDS011;13104;51.030;4.686;2023-08-01T01:47:49;13.63;;;6.65;;
25123;SDS011;13104;51.030;4.686;2023-08-01T01:50:15;13.48;;;6.60;;
25123;SDS011;13104;51.030;4.686;2023-08-01T01:52:42;14.07;;;6.72;;
25123;SDS011;13104;51.030;4.686;2023-08-01T01:55:08;18.65;;;6.63;;
25123;SDS011;13104;51.030;4.686;2023-08-01T01:57:35;10.55;;;6.57;;
25123;SDS011;13104;51.030;4.686;2023-08-01T02:00:05;13.50;;;7.07;;
25123;SDS011;13104;51.030;4.686;2023-08-01T02:02:35;12.55;;;5.85;;
25123;SDS011;13104;51.030;4.686;2023-08-01T02:05:01;13.52;;;6.10;;
25123;SDS011;13104;51.030;4.686;2023-08-01T02:07:28;13.57;;;6.50;;
25123;SDS011;13104;51.030;4.686;2023-08-01T02:09:55;13.70;;;6.50;;
25123;SDS011;13104;51.030;4.686;2023-08-01T02:12:21;13.80;;;6.10;;
25123;SDS011;13104;51.030;4.686;2023-08-01T02:14:47;15.77;;;6.57;;
25123;SDS011;13104;51.030;4.686;2023-08-01T02:17:13;16.63;;;7.18;;
25123;SDS011;13104;51.030;4.686;2023-08-01T02:19:39;14.00;;;6.68;;
25123;SDS011;13104;51.030;4.686;2023-08-01T02:22:05;20.80;;;7.32;;
25123;SDS011;13104;51.030;4.686;2023-08-01T02:24:32;12.57;;;6.65;;
25123;SDS011;13104;51.030;4.686;2023-08-01T02:26:58;15.68;;;7.00;;
25123;SDS011;13104;51.030;4.686;2023-08-01T02:29:24;14.43;;;7.55;;
25123;SDS011;13104;51.030;4.686;2023-08-01T02:31:50;14.85;;;7.05;;
25123;SDS011;13104;51.030;4.686;2023-08-01T02:34:16;15.45;;;7.25;;
25123;SDS011;13104;51.030;4.686;2023-08-01T02:36:42;20.73;;;7.65;;
25123;SDS011;13104;51.030;4.686;2023-08-01T02:39:08;15.90;;;6.78;;
25123;SDS011;13104;51.030;4.686;2023-08-01T02:41:34;15.18;;;7.07;;
25123;SDS011;13104;51.030;4.686;2023-08-01T02:44:00;17.27;;;7.35;;
25123;SDS011;13104;51.030;4.686;2023-08-01T02:46:26;17.90;;;7.80;;
25123;SDS011;13104;51.030;4.686;2023-08-01T02:48:54;14.45;;;7.50;;
25123;SDS011;13104;51.030;4.686;2023-08-01T02:51:20;18.98;;;7.95;;
25123;SDS011;13104;51.030;4.686;2023-08-01T02:53:47;21.55;;;9.00;;
25123;SDS011;13104;51.030;4.686;2023-08-01T02:56:13;17.75;;;8.68;;
25123;SDS011;13104;51.030;4.686;2023-08-01T02:58:39;19.80;;;8.60;;
25123;SDS011;13104;51.030;4.686;2023-08-01T03:01:08;15.50;;;8.63;;
25123;SDS011;13104;51.030;4.686;2023-08-01T03:03:35;18.45;;;9.48;;
25123;SDS011;13104;51.030;4.686;2023-08-01T03:06:01;21.23;;;8.93;;
25123;SDS011;13104;51.030;4.686;2023-08-01T03:08:28;18.85;;;9.45;;
25123;SDS011;13104;51.030;4.686;2023-08-01T03:10:54;19.67;;;9.13;;
25123;SDS011;13104;51.030;4.686;2023-08-01T03:13:20;17.98;;;9.95;;
25123;SDS011;13104;51.030;4.686;2023-08-01T03:15:46;20.50;;;10.63;;
25123;SDS011;13104;51.030;4.686;2023-08-01T03:18:12;18.40;;;10.10;;
25123;SDS011;13104;51.030;4.686;2023-08-01T03:20:39;23.17;;;10.73;;
25123;SDS011;13104;51.030;4.686;2023-08-01T03:23:05;25.02;;;11.30;;
25123;SDS011;13104;51.030;4.686;2023-08-01T03:25:31;23.38;;;11.82;;
25123;SDS011;13104;51.030;4.686;2023-08-01T03:27:58;21.33;;;10.70;;
25123;SDS011;13104;51.030;4.686;2023-08-01T03:30:24;20.00;;;11.52;;
25123;SDS011;13104;51.030;4.686;2023-08-01T03:32:51;23.48;;;12.27;;
25123;SDS011;13104;51.030;4.686;2023-08-01T03:35:17;21.70;;;11.75;;
25123;SDS011;13104;51.030;4.686;2023-08-01T03:37:43;28.88;;;12.50;;
25123;SDS011;13104;51.030;4.686;2023-08-01T03:40:09;21.73;;;11.55;;
25123;SDS011;13104;51.030;4.686;2023-08-01T03:42:36;28.58;;;12.77;;
25123;SDS011;13104;51.030;4.686;2023-08-01T03:45:02;22.40;;;12.00;;
25123;SDS011;13104;51.030;4.686;2023-08-01T03:47:29;26.95;;;13.02;;
25123;SDS011;13104;51.030;4.686;2023-08-01T03:49:55;21.88;;;12.25;;
25123;SDS011;13104;51.030;4.686;2023-08-01T03:52:21;24.67;;;12.40;;
25123;SDS011;13104;51.030;4.686;2023-08-01T03:54:48;22.75;;;12.23;;
25123;SDS011;13104;51.030;4.686;2023-08-01T03:57:14;24.15;;;12.98;;
25123;SDS011;13104;51.030;4.686;2023-08-01T03:59:40;26.85;;;13.48;;
25123;SDS011;13104;51.030;4.686;2023-08-01T04:02:07;25.42;;;13.45;;
25123;SDS011;13104;51.030;4.686;2023-08-01T04:04:33;30.60;;;12.93;;
25123;SDS011;13104;51.030;4.686;2023-08-01T04:06:59;27.42;;;13.38;;
25123;SDS011;13104;51.030;4.686;2023-08-01T04:09:25;19.15;;;12.75;;
25123;SDS011;13104;51.030;4.686;2023-08-01T04:11:51;23.83;;;13.60;;
25123;SDS011;13104;51.030;4.686;2023-08-01T04:14:18;25.23;;;13.38;;
25123;SDS011;13104;51.030;4.686;2023-08-01T04:16:44;30.40;;;13.55;;
25123;SDS011;13104;51.030;4.686;2023-08-01T04:19:10;27.70;;;14.45;;
25123;SDS011;13104;51.030;4.686;2023-08-01T04:21:36;22.95;;;13.15;;
25123;SDS011;13104;51.030;4.686;2023-08-01T04:24:02;32.67;;;14.30;;
25123;SDS011;13104;51.030;4.686;2023-08-01T04:26:28;27.08;;;13.13;;
25123;SDS011;13104;51.030;4.686;2023-08-01T04:28:54;25.25;;;12.98;;
25123;SDS011;13104;51.030;4.686;2023-08-01T04:31:20;25.23;;;13.07;;
25123;SDS011;13104;51.030;4.686;2023-08-01T04:33:46;25.67;;;14.32;;
25123;SDS011;13104;51.030;4.686;2023-08-01T04:36:13;24.90;;;13.13;;
25123;SDS011;13104;51.030;4.686;2023-08-01T04:38:39;32.45;;;14.23;;
25123;SDS011;13104;51.030;4.686;2023-08-01T04:41:05;29.15;;;12.77;;
25123;SDS011;13104;51.030;4.686;2023-08-01T04:43:31;28.70;;;12.77;;
25123;SDS011;13104;51.030;4.686;2023-08-01T04:45:57;25.63;;;11.85;;
25123;SDS011;13104;51.030;4.686;2023-08-01T04:48:24;30.65;;;13.88;;
25123;SDS011;13104;51.030;4.686;2023-08-01T04:50:50;29.88;;;12.10;;
25123;SDS011;13104;51.030;4.686;2023-08-01T04:53:16;27.08;;;13.15;;
25123;SDS011;13104;51.030;4.686;2023-08-01T04:55:42;19.50;;;11.93;;
25123;SDS011;13104;51.030;4.686;2023-08-01T04:58:08;25.58;;;12.90;;
25123;SDS011;13104;51.030;4.686;2023-08-01T05:00:34;27.75;;;13.18;;
25123;SDS011;13104;51.030;4.686;2023-08-01T05:03:00;22.45;;;12.60;;
25123;SDS011;13104;51.030;4.686;2023-08-01T05:05:26;25.92;;;11.38;;
25123;SDS011;13104;51.030;4.686;2023-08-01T05:07:52;25.05;;;11.68;;
25123;SDS011;13104;51.030;4.686;2023-08-01T05:10:18;18.40;;;11.50;;
25123;SDS011;13104;51.030;4.686;2023-08-01T05:12:44;24.33;;;11.13;;
25123;SDS011;13104;51.030;4.686;2023-08-01T05:15:10;21.60;;;11.65;;
25123;SDS011;13104;51.030;4.686;2023-08-01T05:17:37;25.92;;;11.75;;
25123;SDS011;13104;51.030;4.686;2023-08-01T05:20:04;25.38;;;11.27;;
25123;SDS011;13104;51.030;4.686;2023-08-01T05:22:30;24.20;;;11.38;;
25123;SDS011;13104;51.030;4.686;2023-08-01T05:24:56;28.00;;;11.13;;
25123;SDS011;13104;51.030;4.686;2023-08-01T05:27:22;30.15;;;12.50;;
25123;SDS011;13104;51.030;4.686;2023-08-01T05:29:48;26.52;;;11.18;;
25123;SDS011;13104;51.030;4.686;2023-08-01T05:32:14;22.33;;;10.35;;
25123;SDS011;13104;51.030;4.686;2023-08-01T05:34:40;24.08;;;11.10;;
25123;SDS011;13104;51.030;4.686;2023-08-01T05:37:07;21.88;;;10.95;;
25123;SDS011;13104;51.030;4.686;2023-08-01T05:39:33;25.75;;;10.43;;
25123;SDS011;13104;51.030;4.686;2023-08-01T05:41:59;25.52;;;11.00;;
25123;SDS011;13104;51.030;4.686;2023-08-01T05:44:25;27.58;;;10.82;;
25123;SDS011;13104;51.030;4.686;2023-08-01T05:46:51;25.38;;;10.57;;
25123;SDS011;13104;51.030;4.686;2023-08-01T05:49:17;16.65;;;9.57;;
25123;SDS011;13104;51.030;4.686;2023-08-01T05:51:43;23.77;;;9.82;;
25123;SDS011;13104;51.030;4.686;2023-08-01T05:54:09;20.08;;;10.43;;
25123;SDS011;13104;51.030;4.686;2023-08-01T05:56:35;20.00;;;10.10;;
25123;SDS011;13104;51.030;4.686;2023-08-01T05:59:01;19.70;;;10.07;;
25123;SDS011;13104;51.030;4.686;2023-08-01T06:01:28;21.33;;;10.30;;
25123;SDS011;13104;51.030;4.686;2023-08-01T06:03:55;20.63;;;10.48;;
25123;SDS011;13104;51.030;4.686;2023-08-01T06:06:21;18.88;;;9.65;;
25123;SDS011;13104;51.030;4.686;2023-08-01T06:08:47;21.02;;;9.77;;
25123;SDS011;13104;51.030;4.686;2023-08-01T06:11:13;21.15;;;10.23;;
25123;SDS011;13104;51.030;4.686;2023-08-01T06:13:39;24.95;;;10.55;;
25123;SDS011;13104;51.030;4.686;2023-08-01T06:16:05;17.52;;;9.45;;
25123;SDS011;13104;51.030;4.686;2023-08-01T06:18:31;22.52;;;9.10;;
25123;SDS011;13104;51.030;4.686;2023-08-01T06:20:57;19.85;;;9.43;;
25123;SDS011;13104;51.030;4.686;2023-08-01T06:23:23;26.13;;;9.77;;
25123;SDS011;13104;51.030;4.686;2023-08-01T06:25:50;19.98;;;9.45;;
25123;SDS011;13104;51.030;4.686;2023-08-01T06:28:16;21.95;;;9.60;;
25123;SDS011;13104;51.030;4.686;2023-08-01T06:30:42;23.70;;;9.43;;
25123;SDS011;13104;51.030;4.686;2023-08-01T06:33:08;19.67;;;8.40;;
25123;SDS011;13104;51.030;4.686;2023-08-01T06:35:34;23.75;;;10.13;;
25123;SDS011;13104;51.030;4.686;2023-08-01T06:38:00;18.95;;;8.60;;
25123;SDS011;13104;51.030;4.686;2023-08-01T06:40:26;21.65;;;9.20;;
25123;SDS011;13104;51.030;4.686;2023-08-01T06:42:52;16.95;;;9.02;;
25123;SDS011;13104;51.030;4.686;2023-08-01T06:45:18;27.42;;;9.40;;
25123;SDS011;13104;51.030;4.686;2023-08-01T06:47:44;21.60;;;9.90;;
25123;SDS011;13104;51.030;4.686;2023-08-01T06:50:10;18.85;;;9.13;;
25123;SDS011;13104;51.030;4.686;2023-08-01T06:52:37;23.52;;;9.82;;
25123;SDS011;13104;51.030;4.686;2023-08-01T06:55:03;18.63;;;9.38;;
25123;SDS011;13104;51.030;4.686;2023-08-01T06:57:29;23.83;;;9.68;;
25123;SDS011;13104;51.030;4.686;2023-08-01T06:59:57;22.05;;;9.63;;
25123;SDS011;13104;51.030;4.686;2023-08-01T07:02:23;25.38;;;9.82;;
25123;SDS011;13104;51.030;4.686;2023-08-01T07:04:50;18.88;;;9.30;;
25123;SDS011;13104;51.030;4.686;2023-08-01T07:07:16;21.35;;;9.25;;
25123;SDS011;13104;51.030;4.686;2023-08-01T07:09:42;18.00;;;9.60;;
25123;SDS011;13104;51.030;4.686;2023-08-01T07:12:08;21.15;;;8.65;;
25123;SDS011;13104;51.030;4.686;2023-08-01T07:14:35;23.45;;;8.98;;
25123;SDS011;13104;51.030;4.686;2023-08-01T07:17:01;18.10;;;8.90;;
25123;SDS011;13104;51.030;4.686;2023-08-01T07:19:27;22.95;;;8.90;;
25123;SDS011;13104;51.030;4.686;2023-08-01T07:21:53;19.55;;;8.35;;
25123;SDS011;13104;51.030;4.686;2023-08-01T07:24:19;21.30;;;8.70;;
25123;SDS011;13104;51.030;4.686;2023-08-01T07:26:46;16.73;;;8.02;;
25123;SDS011;13104;51.030;4.686;2023-08-01T07:29:12;20.58;;;9.05;;
25123;SDS011;13104;51.030;4.686;2023-08-01T07:31:40;17.42;;;7.55;;
25123;SDS011;13104;51.030;4.686;2023-08-01T07:34:07;19.38;;;6.97;;
25123;SDS011;13104;51.030;4.686;2023-08-01T07:36:33;18.02;;;7.32;;
25123;SDS011;13104;51.030;4.686;2023-08-01T07:38:59;20.33;;;7.65;;
25123;SDS011;13104;51.030;4.686;2023-08-01T07:41:25;17.40;;;6.72;;
25123;SDS011;13104;51.030;4.686;2023-08-01T07:43:51;17.75;;;7.30;;
25123;SDS011;13104;51.030;4.686;2023-08-01T07:46:17;17.38;;;7.20;;
25123;SDS011;13104;51.030;4.686;2023-08-01T07:48:43;11.23;;;7.20;;
25123;SDS011;13104;51.030;4.686;2023-08-01T07:51:09;15.13;;;6.50;;
25123;SDS011;13104;51.030;4.686;2023-08-01T07:53:36;20.35;;;6.45;;
25123;SDS011;13104;51.030;4.686;2023-08-01T07:56:03;22.38;;;6.55;;
25123;SDS011;13104;51.030;4.686;2023-08-01T07:58:31;13.80;;;6.00;;
25123;SDS011;13104;51.030;4.686;2023-08-01T08:01:02;24.25;;;6.38;;
25123;SDS011;13104;51.030;4.686;2023-08-01T08:03:28;17.83;;;6.85;;
25123;SDS011;13104;51.030;4.686;2023-08-01T08:05:54;11.57;;;6.03;;
25123;SDS011;13104;51.030;4.686;2023-08-01T08:08:20;20.85;;;5.90;;
25123;SDS011;13104;51.030;4.686;2023-08-01T08:10:46;17.17;;;5.93;;
25123;SDS011;13104;51.030;4.686;2023-08-01T08:13:12;16.73;;;5.80;;
25123;SDS011;13104;51.030;4.686;2023-08-01T08:15:38;14.80;;;6.10;;
25123;SDS011;13104;51.030;4.686;2023-08-01T08:18:05;13.05;;;6.32;;
25123;SDS011;13104;51.030;4.686;2023-08-01T08:20:31;14.30;;;4.78;;
25123;SDS011;13104;51.030;4.686;2023-08-01T08:22:57;14.15;;;5.43;;
25123;SDS011;13104;51.030;4.686;2023-08-01T08:25:23;13.63;;;5.20;;
25123;SDS011;13104;51.030;4.686;2023-08-01T08:27:49;16.35;;;5.63;;
25123;SDS011;13104;51.030;4.686;2023-08-01T08:30:16;15.48;;;5.07;;
25123;SDS011;13104;51.030;4.686;2023-08-01T08:32:42;15.68;;;6.05;;
25123;SDS011;13104;51.030;4.686;2023-08-01T08:35:08;12.63;;;5.32;;
25123;SDS011;13104;51.030;4.686;2023-08-01T08:37:34;12.90;;;5.30;;
25123;SDS011;13104;51.030;4.686;2023-08-01T08:40:02;19.95;;;5.55;;
25123;SDS011;13104;51.030;4.686;2023-08-01T08:42:28;13.48;;;4.93;;
25123;SDS011;13104;51.030;4.686;2023-08-01T08:44:54;13.55;;;5.55;;
25123;SDS011;13104;51.030;4.686;2023-08-01T08:47:25;17.63;;;6.40;;
25123;SDS011;13104;51.030;4.686;2023-08-01T08:49:51;14.77;;;5.80;;
25123;SDS011;13104;51.030;4.686;2023-08-01T08:52:18;8.85;;;5.07;;
25123;SDS011;13104;51.030;4.686;2023-08-01T08:54:44;13.73;;;5.50;;
25123;SDS011;13104;51.030;4.686;2023-08-01T08:57:11;11.63;;;5.28;;
25123;SDS011;13104;51.030;4.686;2023-08-01T08:59:37;11.02;;;4.70;;
25123;SDS011;13104;51.030;4.686;2023-08-01T09:02:04;10.15;;;4.82;;
25123;SDS011;13104;51.030;4.686;2023-08-01T09:04:31;15.75;;;5.50;;
25123;SDS011;13104;51.030;4.686;2023-08-01T09:07:03;11.65;;;5.05;;
25123;SDS011;13104;51.030;4.686;2023-08-01T09:09:33;12.70;;;4.25;;
25123;SDS011;13104;51.030;4.686;2023-08-01T09:12:00;12.32;;;4.50;;
25123;SDS011;13104;51.030;4.686;2023-08-01T09:14:26;12.63;;;4.25;;
25123;SDS011;13104;51.030;4.686;2023-08-01T09:16:52;13.85;;;4.55;;
25123;SDS011;13104;51.030;4.686;2023-08-01T09:19:19;14.10;;;5.25;;
25123;SDS011;13104;51.030;4.686;2023-08-01T09:21:45;11.57;;;5.25;;
25123;SDS011;13104;51.030;4.686;2023-08-01T09:24:16;8.65;;;4.32;;
25123;SDS011;13104;51.030;4.686;2023-08-01T09:26:42;10.18;;;4.47;;
25123;SDS011;13104;51.030;4.686;2023-08-01T09:29:08;10.57;;;4.30;;
25123;SDS011;13104;51.030;4.686;2023-08-01T09:31:35;12.45;;;4.55;;
25123;SDS011;13104;51.030;4.686;2023-08-01T09:34:02;10.75;;;4.60;;
25123;SDS011;13104;51.030;4.686;2023-08-01T09:36:34;9.45;;;4.20;;
25123;SDS011;13104;51.030;4.686;2023-08-01T09:39:00;13.65;;;4.53;;
25123;SDS011;13104;51.030;4.686;2023-08-01T09:41:28;8.20;;;4.07;;
25123;SDS011;13104;51.030;4.686;2023-08-01T09:43:54;10.73;;;4.63;;
25123;SDS011;13104;51.030;4.686;2023-08-01T09:46:20;8.35;;;4.30;;
25123;SDS011;13104;51.030;4.686;2023-08-01T09:48:46;13.07;;;4.20;;
25123;SDS011;13104;51.030;4.686;2023-08-01T09:51:16;9.52;;;4.28;;
25123;SDS011;13104;51.030;4.686;2023-08-01T09:53:54;9.93;;;4.43;;
25123;SDS011;13104;51.030;4.686;2023-08-01T09:56:21;9.30;;;4.15;;
25123;SDS011;13104;51.030;4.686;2023-08-01T09:58:48;13.48;;;5.07;;
25123;SDS011;13104;51.030;4.686;2023-08-01T10:01:15;7.63;;;4.40;;
25123;SDS011;13104;51.030;4.686;2023-08-01T10:03:44;9.48;;;4.57;;
25123;SDS011;13104;51.030;4.686;2023-08-01T10:06:12;11.50;;;4.55;;
25123;SDS011;13104;51.030;4.686;2023-08-01T10:08:40;9.43;;;4.07;;
25123;SDS011;13104;51.030;4.686;2023-08-01T10:11:06;8.57;;;4.60;;
25123;SDS011;13104;51.030;4.686;2023-08-01T10:13:32;12.13;;;4.82;;
25123;SDS011;13104;51.030;4.686;2023-08-01T10:15:59;8.50;;;4.28;;
25123;SDS011;13104;51.030;4.686;2023-08-01T10:18:25;9.20;;;4.15;;
25123;SDS011;13104;51.030;4.686;2023-08-01T10:20:54;10.18;;;4.03;;
25123;SDS011;13104;51.030;4.686;2023-08-01T10:23:20;10.20;;;3.97;;
25123;SDS011;13104;51.030;4.686;2023-08-01T10:25:46;8.85;;;3.72;;
25123;SDS011;13104;51.030;4.686;2023-08-01T10:28:13;10.38;;;3.42;;
25123;SDS011;13104;51.030;4.686;2023-08-01T10:30:39;7.00;;;2.97;;
25123;SDS011;13104;51.030;4.686;2023-08-01T10:33:05;6.65;;;2.65;;
25123;SDS011;13104;51.030;4.686;2023-08-01T10:35:37;6.53;;;3.05;;
25123;SDS011;13104;51.030;4.686;2023-08-01T10:38:04;6.60;;;3.13;;
25123;SDS011;13104;51.030;4.686;2023-08-01T10:40:39;5.80;;;3.00;;
25123;SDS011;13104;51.030;4.686;2023-08-01T10:43:05;7.57;;;3.55;;
25123;SDS011;13104;51.030;4.686;2023-08-01T10:45:31;6.47;;;2.90;;
25123;SDS011;13104;51.030;4.686;2023-08-01T10:48:07;10.30;;;3.05;;
25123;SDS011;13104;51.030;4.686;2023-08-01T10:50:34;6.97;;;2.83;;
25123;SDS011;13104;51.030;4.686;2023-08-01T10:53:07;7.75;;;3.00;;
25123;SDS011;13104;51.030;4.686;2023-08-01T10:55:46;7.18;;;2.55;;
25123;SDS011;13104;51.030;4.686;2023-08-01T10:58:13;6.47;;;2.42;;
25123;SDS011;13104;51.030;4.686;2023-08-01T11:00:39;10.90;;;3.10;;
25123;SDS011;13104;51.030;4.686;2023-08-01T11:03:05;6.78;;;2.67;;
25123;SDS011;13104;51.030;4.686;2023-08-01T11:05:31;6.75;;;3.05;;
25123;SDS011;13104;51.030;4.686;2023-08-01T11:08:00;10.13;;;2.90;;
25123;SDS011;13104;51.030;4.686;2023-08-01T11:10:27;6.50;;;2.88;;
25123;SDS011;13104;51.030;4.686;2023-08-01T11:12:54;6.90;;;2.90;;
25123;SDS011;13104;51.030;4.686;2023-08-01T11:15:20;16.92;;;3.13;;
25123;SDS011;13104;51.030;4.686;2023-08-01T11:17:47;10.55;;;3.15;;
25123;SDS011;13104;51.030;4.686;2023-08-01T11:20:14;12.63;;;2.88;;
25123;SDS011;13104;51.030;4.686;2023-08-01T11:25:16;6.13;;;2.72;;
25123;SDS011;13104;51.030;4.686;2023-08-01T11:27:42;7.95;;;3.00;;
25123;SDS011;13104;51.030;4.686;2023-08-01T11:30:08;8.70;;;3.17;;
25123;SDS011;13104;51.030;4.686;2023-08-01T11:32:36;11.50;;;3.67;;
25123;SDS011;13104;51.030;4.686;2023-08-01T11:35:02;7.45;;;3.30;;
25123;SDS011;13104;51.030;4.686;2023-08-01T11:37:29;10.00;;;3.38;;
25123;SDS011;13104;51.030;4.686;2023-08-01T11:39:55;11.98;;;3.03;;
25123;SDS011;13104;51.030;4.686;2023-08-01T11:42:22;9.57;;;2.65;;
25123;SDS011;13104;51.030;4.686;2023-08-01T11:44:48;10.18;;;2.75;;
25123;SDS011;13104;51.030;4.686;2023-08-01T11:47:15;8.27;;;2.95;;
25123;SDS011;13104;51.030;4.686;2023-08-01T11:49:45;7.97;;;3.28;;
25123;SDS011;13104;51.030;4.686;2023-08-01T11:52:21;12.10;;;3.17;;
25123;SDS011;13104;51.030;4.686;2023-08-01T11:54:47;8.20;;;2.60;;
25123;SDS011;13104;51.030;4.686;2023-08-01T11:57:14;9.73;;;2.90;;
25123;SDS011;13104;51.030;4.686;2023-08-01T11:59:49;6.40;;;2.70;;
25123;SDS011;13104;51.030;4.686;2023-08-01T12:02:22;8.90;;;2.60;;
25123;SDS011;13104;51.030;4.686;2023-08-01T12:04:48;6.88;;;2.78;;
25123;SDS011;13104;51.030;4.686;2023-08-01T12:07:15;8.65;;;2.72;;
25123;SDS011;13104;51.030;4.686;2023-08-01T12:09:41;9.93;;;2.55;;
25123;SDS011;13104;51.030;4.686;2023-08-01T12:12:08;10.73;;;2.78;;
25123;SDS011;13104;51.030;4.686;2023-08-01T12:14:41;7.75;;;2.40;;
25123;SDS011;13104;51.030;4.686;2023-08-01T12:17:07;10.27;;;2.67;;
25123;SDS011;13104;51.030;4.686;2023-08-01T12:19:33;8.95;;;2.50;;
25123;SDS011;13104;51.030;4.686;2023-08-01T12:21:59;7.32;;;2.60;;
25123;SDS011;13104;51.030;4.686;2023-08-01T12:24:25;9.95;;;2.90;;
25123;SDS011;13104;51.030;4.686;2023-08-01T12:26:51;10.85;;;2.72;;
25123;SDS011;13104;51.030;4.686;2023-08-01T12:29:17;7.63;;;2.33;;
25123;SDS011;13104;51.030;4.686;2023-08-01T12:31:44;8.00;;;2.50;;
25123;SDS011;13104;51.030;4.686;2023-08-01T12:34:11;9.30;;;2.55;;
25123;SDS011;13104;51.030;4.686;2023-08-01T12:36:37;8.25;;;2.13;;
25123;SDS011;13104;51.030;4.686;2023-08-01T12:39:03;9.23;;;2.28;;
25123;SDS011;13104;51.030;4.686;2023-08-01T12:41:35;4.95;;;1.70;;
25123;SDS011;13104;51.030;4.686;2023-08-01T12:44:01;8.52;;;2.28;;
25123;SDS011;13104;51.030;4.686;2023-08-01T12:46:28;6.15;;;2.20;;
25123;SDS011;13104;51.030;4.686;2023-08-01T12:48:54;5.88;;;1.80;;
25123;SDS011;13104;51.030;4.686;2023-08-01T12:51:20;6.25;;;1.60;;
25123;SDS011;13104;51.030;4.686;2023-08-01T12:53:46;8.93;;;2.30;;
25123;SDS011;13104;51.030;4.686;2023-08-01T12:56:12;4.22;;;1.88;;
25123;SDS011;13104;51.030;4.686;2023-08-01T12:58:38;4.03;;;1.75;;
25123;SDS011;13104;51.030;4.686;2023-08-01T13:01:04;9.10;;;1.90;;
25123;SDS011;13104;51.030;4.686;2023-08-01T13:03:30;7.15;;;2.08;;
25123;SDS011;13104;51.030;4.686;2023-08-01T13:05:56;6.45;;;1.70;;
25123;SDS011;13104;51.030;4.686;2023-08-01T13:08:23;8.40;;;1.75;;
25123;SDS011;13104;51.030;4.686;2023-08-01T13:10:49;4.35;;;1.55;;
25123;SDS011;13104;51.030;4.686;2023-08-01T13:13:15;7.78;;;1.67;;
25123;SDS011;13104;51.030;4.686;2023-08-01T13:15:42;5.82;;;1.50;;
25123;SDS011;13104;51.030;4.686;2023-08-01T13:18:09;3.47;;;1.55;;
25123;SDS011;13104;51.030;4.686;2023-08-01T13:20:35;4.95;;;1.55;;
25123;SDS011;13104;51.030;4.686;2023-08-01T13:23:01;6.15;;;1.60;;
25123;SDS011;13104;51.030;4.686;2023-08-01T13:25:28;5.88;;;1.45;;
25123;SDS011;13104;51.030;4.686;2023-08-01T13:27:54;4.85;;;1.38;;
25123;SDS011;13104;51.030;4.686;2023-08-01T13:30:20;5.07;;;1.45;;
25123;SDS011;13104;51.030;4.686;2023-08-01T13:32:46;8.45;;;1.42;;
25123;SDS011;13104;51.030;4.686;2023-08-01T13:35:12;11.85;;;1.63;;
25123;SDS011;13104;51.030;4.686;2023-08-01T13:37:39;5.72;;;1.40;;
25123;SDS011;13104;51.030;4.686;2023-08-01T13:40:05;4.78;;;1.42;;
25123;SDS011;13104;51.030;4.686;2023-08-01T13:42:31;4.72;;;1.50;;
25123;SDS011;13104;51.030;4.686;2023-08-01T13:44:58;5.07;;;1.50;;
25123;SDS011;13104;51.030;4.686;2023-08-01T13:47:25;4.78;;;1.30;;
25123;SDS011;13104;51.030;4.686;2023-08-01T13:49:51;6.55;;;1.80;;
25123;SDS011;13104;51.030;4.686;2023-08-01T13:52:17;7.13;;;1.95;;
25123;SDS011;13104;51.030;4.686;2023-08-01T13:54:43;7.25;;;1.88;;
25123;SDS011;13104;51.030;4.686;2023-08-01T13:57:09;7.55;;;1.73;;
25123;SDS011;13104;51.030;4.686;2023-08-01T13:59:35;5.78;;;1.35;;
25123;SDS011;13104;51.030;4.686;2023-08-01T14:02:01;7.13;;;1.95;;
25123;SDS011;13104;51.030;4.686;2023-08-01T14:04:28;7.65;;;1.73;;
25123;SDS011;13104;51.030;4.686;2023-08-01T14:06:54;7.57;;;1.70;;
25123;SDS011;13104;51.030;4.686;2023-08-01T14:09:20;3.88;;;1.73;;
25123;SDS011;13104;51.030;4.686;2023-08-01T14:11:46;9.93;;;1.95;;
25123;SDS011;13104;51.030;4.686;2023-08-01T14:14:12;5.65;;;1.65;;
25123;SDS011;13104;51.030;4.686;2023-08-01T14:16:39;7.50;;;1.45;;
25123;SDS011;13104;51.030;4.686;2023-08-01T14:19:05;5.72;;;1.63;;
25123;SDS011;13104;51.030;4.686;2023-08-01T14:21:33;6.22;;;1.90;;
25123;SDS011;13104;51.030;4.686;2023-08-01T14:23:59;5.57;;;1.73;;
25123;SDS011;13104;51.030;4.686;2023-08-01T14:26:25;6.93;;;1.92;;
25123;SDS011;13104;51.030;4.686;2023-08-01T14:28:51;5.68;;;1.60;;
25123;SDS011;13104;51.030;4.686;2023-08-01T14:31:17;7.85;;;1.63;;
25123;SDS011;13104;51.030;4.686;2023-08-01T14:33:43;6.07;;;2.10;;